createdAt,value
2024-01-11T00:01:11.708Z,-6.70
2024-01-11T00:03:38.573Z,-6.60
2024-01-11T00:06:05.620Z,-6.40
2024-01-11T00:08:32.486Z,-6.60
2024-01-11T00:10:59.518Z,-6.40
2024-01-11T00:13:26.251Z,-6.30
2024-01-11T00:15:53.185Z,-6.30
2024-01-11T00:18:20.385Z,-6.20
2024-01-11T00:20:47.250Z,-6.20
2024-01-11T00:23:14.123Z,-6.30
2024-01-11T00:25:40.861Z,-6.40
2024-01-11T00:28:07.582Z,-6.60
2024-01-11T00:30:34.428Z,-6.50
2024-01-11T00:33:01.354Z,-6.40
2024-01-11T00:35:28.263Z,-6.40
2024-01-11T00:37:55.079Z,-6.70
2024-01-11T00:40:21.821Z,-6.70
2024-01-11T00:42:48.552Z,-6.60
2024-01-11T00:45:15.260Z,-6.50
2024-01-11T00:47:42.203Z,-6.50
2024-01-11T00:50:10.714Z,-6.50
2024-01-11T00:52:37.556Z,-6.40
2024-01-11T00:55:04.408Z,-6.30
2024-01-11T00:57:31.134Z,-6.30
2024-01-11T00:59:57.871Z,-6.30
2024-01-11T01:02:24.689Z,-6.50
2024-01-11T01:04:51.456Z,-6.80
2024-01-11T01:07:18.210Z,-6.80
2024-01-11T01:09:45.062Z,-6.70
2024-01-11T01:12:11.764Z,-6.70
2024-01-11T01:14:38.537Z,-6.70
2024-01-11T01:17:05.386Z,-6.70
2024-01-11T01:19:32.164Z,-6.60
2024-01-11T01:21:58.940Z,-6.70
2024-01-11T01:24:25.685Z,-6.70
2024-01-11T01:26:52.421Z,-6.70
2024-01-11T01:29:19.210Z,-6.80
2024-01-11T01:31:46.024Z,-6.80
2024-01-11T01:34:12.963Z,-6.70
2024-01-11T01:36:39.726Z,-6.60
2024-01-11T01:39:06.492Z,-6.40
2024-01-11T01:41:33.342Z,-6.40
2024-01-11T01:44:00.138Z,-6.50
2024-01-11T01:46:27.252Z,-6.70
2024-01-11T01:48:54.919Z,-6.80
2024-01-11T01:51:23.210Z,-6.80
2024-01-11T01:53:50.560Z,-7.20
2024-01-11T01:56:18.176Z,-7.30
2024-01-11T01:58:45.007Z,-7.20
2024-01-11T02:01:12.733Z,-7.10
2024-01-11T02:03:39.766Z,-7.00
2024-01-11T02:06:07.538Z,-7.00
2024-01-11T02:08:35.790Z,-7.00
2024-01-11T02:11:02.942Z,-6.90
2024-01-11T02:13:32.915Z,-7.00
2024-01-11T02:15:59.658Z,-7.20
2024-01-11T02:18:26.462Z,-7.20
2024-01-11T02:20:53.336Z,-7.30
2024-01-11T02:23:22.462Z,-7.30
2024-01-11T02:25:49.447Z,-7.30
2024-01-11T02:28:16.307Z,-7.30
2024-01-11T02:30:44.010Z,-7.30
2024-01-11T02:33:11.114Z,-7.40
2024-01-11T02:35:42.902Z,-7.30
2024-01-11T02:38:10.842Z,-7.20
2024-01-11T02:40:38.381Z,-7.40
2024-01-11T02:43:08.834Z,-7.30
2024-01-11T02:45:35.574Z,-7.20
2024-01-11T02:48:02.505Z,-7.40
2024-01-11T02:50:29.285Z,-7.30
2024-01-11T02:52:56.032Z,-7.20
2024-01-11T02:55:22.826Z,-7.40
2024-01-11T02:57:49.518Z,-7.50
2024-01-11T03:00:16.470Z,-7.50
2024-01-11T03:02:43.515Z,-7.40
2024-01-11T03:05:10.525Z,-7.40
2024-01-11T03:07:37.248Z,-7.40
2024-01-11T03:10:04.131Z,-7.40
2024-01-11T03:12:30.880Z,-7.30
2024-01-11T03:14:57.655Z,-7.20
2024-01-11T03:17:24.502Z,-7.30
2024-01-11T03:19:51.282Z,-7.40
2024-01-11T03:22:17.972Z,-7.30
2024-01-11T03:24:44.728Z,-7.20
2024-01-11T03:27:11.467Z,-7.20
2024-01-11T03:29:38.320Z,-7.30
2024-01-11T03:32:05.464Z,-7.20
2024-01-11T03:34:32.231Z,-7.20
2024-01-11T03:36:58.968Z,-7.20
2024-01-11T03:39:26.541Z,-7.40
2024-01-11T03:41:53.290Z,-7.30
2024-01-11T03:44:20.211Z,-7.40
2024-01-11T03:46:46.913Z,-7.50
2024-01-11T03:49:13.686Z,-7.60
2024-01-11T03:51:40.441Z,-7.50
2024-01-11T03:54:07.208Z,-7.50
2024-01-11T03:56:34.001Z,-7.50
2024-01-11T03:59:00.777Z,-7.40
2024-01-11T04:01:27.571Z,-7.40
2024-01-11T04:03:54.328Z,-7.50
2024-01-11T04:06:22.714Z,-7.50
2024-01-11T04:08:49.681Z,-7.50
2024-01-11T04:11:16.557Z,-7.40
2024-01-11T04:13:43.330Z,-7.40
2024-01-11T04:16:10.159Z,-7.60
2024-01-11T04:18:36.995Z,-7.60
2024-01-11T04:21:03.885Z,-7.60
2024-01-11T04:23:30.891Z,-7.40
2024-01-11T04:25:57.685Z,-7.60
2024-01-11T04:28:24.431Z,-7.70
2024-01-11T04:30:51.266Z,-7.60
2024-01-11T04:33:18.277Z,-7.50
2024-01-11T04:35:45.146Z,-7.50
2024-01-11T04:38:12.037Z,-7.70
2024-01-11T04:40:38.842Z,-7.80
2024-01-11T04:43:05.631Z,-7.60
2024-01-11T04:45:32.333Z,-7.40
2024-01-11T04:47:59.339Z,-7.60
2024-01-11T04:50:26.169Z,-7.60
2024-01-11T04:52:52.912Z,-7.60
2024-01-11T04:55:19.772Z,-7.60
2024-01-11T04:57:46.493Z,-7.60
2024-01-11T05:00:13.492Z,-7.60
2024-01-11T05:02:40.412Z,-7.50
2024-01-11T05:05:07.426Z,-7.30
2024-01-11T05:07:35.860Z,-7.50
2024-01-11T05:10:02.634Z,-7.60
2024-01-11T05:12:29.383Z,-7.70
2024-01-11T05:14:56.154Z,-7.80
2024-01-11T05:17:23.782Z,-7.80
2024-01-11T05:19:50.525Z,-7.70
2024-01-11T05:22:17.264Z,-7.60
2024-01-11T05:24:44.142Z,-7.70
2024-01-11T05:27:10.873Z,-7.80
2024-01-11T05:29:37.650Z,-7.70
2024-01-11T05:32:04.730Z,-7.70
2024-01-11T05:34:31.639Z,-7.80
2024-01-11T05:37:00.385Z,-7.70
2024-01-11T05:39:27.817Z,-7.60
2024-01-11T05:41:54.563Z,-7.80
2024-01-11T05:44:21.415Z,-8.00
2024-01-11T05:46:48.243Z,-7.90
2024-01-11T05:49:15.125Z,-7.80
2024-01-11T05:51:41.887Z,-7.70
2024-01-11T05:54:08.642Z,-7.60
2024-01-11T05:56:35.519Z,-7.70
2024-01-11T05:59:02.382Z,-7.90
2024-01-11T06:01:29.184Z,-7.80
2024-01-11T06:03:56.309Z,-7.70
2024-01-11T06:06:23.173Z,-7.50
2024-01-11T06:08:50.143Z,-7.60
2024-01-11T06:11:19.532Z,-7.60
2024-01-11T06:13:46.464Z,-7.50
2024-01-11T06:16:13.737Z,-7.60
2024-01-11T06:18:40.732Z,-7.70
2024-01-11T06:21:07.681Z,-7.80
2024-01-11T06:23:34.494Z,-7.80
2024-01-11T06:26:01.349Z,-7.70
2024-01-11T06:28:28.145Z,-7.60
2024-01-11T06:30:55.176Z,-7.70
2024-01-11T06:33:22.272Z,-8.00
2024-01-11T06:35:49.198Z,-8.10
2024-01-11T06:38:16.023Z,-8.20
2024-01-11T06:40:42.869Z,-8.20
2024-01-11T06:43:09.601Z,-8.00
2024-01-11T06:45:36.332Z,-8.00
2024-01-11T06:48:03.403Z,-8.00
2024-01-11T06:50:30.294Z,-8.00
2024-01-11T06:52:57.198Z,-8.00
2024-01-11T06:55:24.096Z,-7.90
2024-01-11T06:57:50.946Z,-7.90
2024-01-11T07:00:17.719Z,-7.80
2024-01-11T07:02:44.550Z,-7.60
2024-01-11T07:05:11.473Z,-7.70
2024-01-11T07:07:38.375Z,-7.80
2024-01-11T07:10:06.655Z,-7.70
2024-01-11T07:12:34.067Z,-7.60
2024-01-11T07:15:00.961Z,-7.70
2024-01-11T07:17:27.875Z,-8.00
2024-01-11T07:19:54.622Z,-8.00
2024-01-11T07:22:21.393Z,-7.90
2024-01-11T07:24:48.125Z,-8.00
2024-01-11T07:27:15.736Z,-8.00
2024-01-11T07:29:42.846Z,-7.80
2024-01-11T07:32:09.894Z,-7.70
2024-01-11T07:34:37.761Z,-7.70
2024-01-11T07:37:05.103Z,-7.70
2024-01-11T07:39:32.187Z,-7.80
2024-01-11T07:44:25.787Z,-7.60
2024-01-11T07:46:54.551Z,-7.60
2024-01-11T07:49:22.915Z,-7.60
2024-01-11T07:51:50.320Z,-7.50
2024-01-11T07:54:17.267Z,-7.50
2024-01-11T07:56:44.566Z,-7.40
2024-01-11T07:59:15.770Z,-7.30
2024-01-11T08:01:43.010Z,-7.20
2024-01-11T08:04:09.855Z,-7.20
2024-01-11T08:06:36.691Z,-7.20
2024-01-11T08:09:05.795Z,-7.10
2024-01-11T08:11:36.390Z,-7.10
2024-01-11T08:14:06.894Z,-7.10
2024-01-11T08:16:34.103Z,-6.90
2024-01-11T08:19:02.301Z,-6.80
2024-01-11T08:21:29.720Z,-6.80
2024-01-11T08:24:00.345Z,-6.70
2024-01-11T08:26:31.174Z,-6.50
2024-01-11T08:28:58.116Z,-6.30
2024-01-11T08:31:24.908Z,-6.30
2024-01-11T08:33:51.830Z,-6.20
2024-01-11T08:36:18.694Z,-6.10
2024-01-11T08:38:50.918Z,-6.10
2024-01-11T08:41:17.865Z,-5.90
2024-01-11T08:43:44.810Z,-5.80
2024-01-11T08:46:11.557Z,-5.60
2024-01-11T08:48:38.506Z,-5.50
2024-01-11T08:51:05.629Z,-5.40
2024-01-11T08:53:32.412Z,-5.20
2024-01-11T08:55:59.278Z,-4.90
2024-01-11T08:58:26.062Z,-4.60
2024-01-11T09:00:52.835Z,-4.40
2024-01-11T09:03:19.723Z,-4.20
2024-01-11T09:05:46.791Z,-4.10
2024-01-11T09:08:13.777Z,-3.90
2024-01-11T09:10:42.666Z,-3.70
2024-01-11T09:13:11.586Z,-3.70
2024-01-11T09:15:39.375Z,-3.60
2024-01-11T09:18:06.322Z,-3.60
2024-01-11T09:20:33.170Z,-3.50
2024-01-11T09:23:00.062Z,-3.30
2024-01-11T09:25:26.782Z,-3.10
2024-01-11T09:27:53.790Z,-3.00
2024-01-11T09:30:20.596Z,-2.80
2024-01-11T09:32:47.544Z,-2.60
2024-01-11T09:35:16.313Z,-2.70
2024-01-11T09:38:05.169Z,-2.60
2024-01-11T09:40:32.438Z,-2.50
2024-01-11T09:42:59.383Z,-2.40
2024-01-11T09:45:26.898Z,-2.30
2024-01-11T09:47:54.307Z,-2.20
2024-01-11T09:50:22.695Z,-2.10
2024-01-11T09:52:50.190Z,-2.10
2024-01-11T09:55:17.557Z,-2.10
2024-01-11T09:57:45.764Z,-1.90
2024-01-11T10:00:14.630Z,-2.00
2024-01-11T10:02:41.405Z,-1.70
2024-01-11T10:05:08.996Z,-1.70
2024-01-11T10:07:37.342Z,-1.60
2024-01-11T10:10:04.835Z,-1.50
2024-01-11T10:12:31.729Z,-1.40
2024-01-11T10:15:05.970Z,-1.40
2024-01-11T10:17:33.008Z,-1.20
2024-01-11T10:20:00.731Z,-1.10
2024-01-11T10:22:28.312Z,-1.00
2024-01-11T10:25:12.334Z,-1.10
2024-01-11T10:27:45.639Z,-0.80
2024-01-11T10:30:14.515Z,-0.70
2024-01-11T10:32:41.526Z,-0.70
2024-01-11T10:35:08.529Z,-0.70
2024-01-11T10:37:35.518Z,-0.60
2024-01-11T10:40:14.025Z,-0.40
2024-01-11T10:42:42.706Z,-0.20
2024-01-11T10:45:12.280Z,-0.20
2024-01-11T10:47:40.052Z,-0.20
2024-01-11T10:50:07.799Z,-0.20
2024-01-11T10:52:58.667Z,0.00
2024-01-11T10:55:25.778Z,0.10
2024-01-11T10:57:52.530Z,0.30
2024-01-11T11:00:36.517Z,0.20
2024-01-11T11:03:04.155Z,0.20
2024-01-11T11:05:32.213Z,0.10
2024-01-11T11:08:02.725Z,0.50
2024-01-11T11:10:29.826Z,0.50
2024-01-11T11:12:58.530Z,0.80
2024-01-11T11:15:25.411Z,0.70
2024-01-11T11:17:54.177Z,0.70
2024-01-11T11:20:21.158Z,0.80
2024-01-11T11:23:11.144Z,1.00
2024-01-11T11:25:38.212Z,1.00
2024-01-11T11:28:08.101Z,1.10
2024-01-11T11:30:37.797Z,1.00
2024-01-11T11:33:19.879Z,1.00
2024-01-11T11:35:50.549Z,1.00
2024-01-11T11:38:21.992Z,1.00
2024-01-11T11:40:50.035Z,0.90
2024-01-11T11:43:17.989Z,0.90
2024-01-11T11:45:45.130Z,1.10
2024-01-11T11:48:30.769Z,0.90
2024-01-11T11:51:07.047Z,0.90
2024-01-11T11:53:37.927Z,1.10
2024-01-11T11:56:05.329Z,1.20
2024-01-11T11:58:32.949Z,1.40
2024-01-11T12:01:00.117Z,1.70
2024-01-11T12:03:41.775Z,1.60
2024-01-11T12:06:10.103Z,1.60
2024-01-11T12:08:37.385Z,1.60
2024-01-11T12:11:04.893Z,1.70
2024-01-11T12:13:33.229Z,1.80
2024-01-11T12:16:00.280Z,1.70
2024-01-11T12:18:27.380Z,1.60
2024-01-11T12:20:54.665Z,1.70
2024-01-11T12:23:21.691Z,2.10
2024-01-11T12:25:48.506Z,2.40
2024-01-11T12:28:15.689Z,2.50
2024-01-11T12:30:43.712Z,2.50
2024-01-11T12:33:10.787Z,2.60
2024-01-11T12:35:37.843Z,2.60
2024-01-11T12:38:08.210Z,2.10
2024-01-11T12:40:41.654Z,2.10
2024-01-11T12:43:08.934Z,2.40
2024-01-11T12:45:36.260Z,2.70
2024-01-11T12:48:05.162Z,3.00
2024-01-11T12:50:34.036Z,3.00
2024-01-11T12:53:23.485Z,3.00
2024-01-11T12:56:02.864Z,3.00
2024-01-11T12:58:29.918Z,3.20
2024-01-11T13:00:56.897Z,3.00
2024-01-11T13:03:24.207Z,3.20
2024-01-11T13:05:52.321Z,3.30
2024-01-11T13:08:21.250Z,3.40
2024-01-11T13:10:49.529Z,3.50
2024-01-11T13:13:16.791Z,3.50
2024-01-11T13:15:43.570Z,3.50
2024-01-11T13:18:10.748Z,3.40
2024-01-11T13:20:37.999Z,3.50
2024-01-11T13:23:17.322Z,3.50
2024-01-11T13:25:44.659Z,3.30
2024-01-11T13:28:14.840Z,3.30
2024-01-11T13:30:42.122Z,3.40
2024-01-11T13:36:57.552Z,3.40
2024-01-11T13:39:25.220Z,3.40
2024-01-11T13:41:52.120Z,3.40
2024-01-11T13:44:20.655Z,3.30
2024-01-11T13:46:48.208Z,3.20
2024-01-11T13:49:15.008Z,3.10
2024-01-11T13:51:50.100Z,2.90
2024-01-11T13:54:23.467Z,2.90
2024-01-11T13:56:52.837Z,2.60
2024-01-11T13:59:19.756Z,2.50
2024-01-11T14:01:46.547Z,2.50
2024-01-11T14:04:13.342Z,2.50
2024-01-11T14:06:40.264Z,2.50
2024-01-11T14:09:10.585Z,2.50
2024-01-11T14:11:37.404Z,2.50
2024-01-11T14:14:04.198Z,2.40
2024-01-11T14:16:31.609Z,2.30
2024-01-11T14:18:58.637Z,2.20
2024-01-11T14:21:26.011Z,2.10
2024-01-11T14:23:52.968Z,2.00
2024-01-11T14:26:19.876Z,2.10
2024-01-11T14:28:46.601Z,1.90
2024-01-11T14:31:13.504Z,1.70
2024-01-11T14:33:40.391Z,1.60
2024-01-11T14:36:07.459Z,1.60
2024-01-11T14:38:34.227Z,1.40
2024-01-11T14:41:01.027Z,1.30
2024-01-11T14:43:27.762Z,1.20
2024-01-11T14:45:55.394Z,1.00
2024-01-11T14:48:23.228Z,1.00
2024-01-11T14:50:50.361Z,0.90
2024-01-11T14:53:17.225Z,0.70
2024-01-11T14:55:44.790Z,0.50
2024-01-11T14:58:11.757Z,0.50
2024-01-11T15:00:38.516Z,0.40
2024-01-11T15:03:05.948Z,0.30
2024-01-11T15:05:33.099Z,0.00
2024-01-11T15:08:00.062Z,-0.20
2024-01-11T15:10:26.895Z,-0.20
2024-01-11T15:12:53.623Z,-0.20
2024-01-11T15:15:20.410Z,-0.50
2024-01-11T15:17:47.968Z,-0.50
2024-01-11T15:20:14.868Z,-0.60
2024-01-11T15:22:42.025Z,-0.70
2024-01-11T15:25:36.789Z,-0.70
2024-01-11T15:28:03.860Z,-0.80
2024-01-11T15:30:31.556Z,-1.20
2024-01-11T15:33:01.972Z,-1.30
2024-01-11T15:35:29.360Z,-1.40
2024-01-11T15:37:56.243Z,-1.50
2024-01-11T15:40:23.341Z,-1.40
2024-01-11T15:42:50.462Z,-1.40
2024-01-11T15:45:17.170Z,-1.50
2024-01-11T15:47:44.088Z,-1.40
2024-01-11T15:50:11.779Z,-1.60
2024-01-11T15:52:39.340Z,-1.90
2024-01-11T15:55:06.716Z,-1.90
2024-01-11T15:57:33.540Z,-2.10
2024-01-11T16:00:00.532Z,-2.20
2024-01-11T16:02:27.428Z,-2.30
2024-01-11T16:04:54.286Z,-2.30
2024-01-11T16:07:21.020Z,-2.40
2024-01-11T16:09:49.335Z,-2.30
2024-01-11T16:12:16.117Z,-2.20
2024-01-11T16:14:44.398Z,-2.20
2024-01-11T16:17:11.329Z,-2.30
2024-01-11T16:19:38.196Z,-2.50
2024-01-11T16:22:05.468Z,-3.00
2024-01-11T16:24:32.307Z,-2.90
2024-01-11T16:27:08.145Z,-2.80
2024-01-11T16:29:35.003Z,-2.90
2024-01-11T16:32:01.830Z,-2.70
2024-01-11T16:34:29.116Z,-2.60
2024-01-11T16:36:55.947Z,-2.90
2024-01-11T16:39:22.655Z,-3.00
2024-01-11T16:41:49.653Z,-2.70
2024-01-11T16:44:17.796Z,-2.90
2024-01-11T16:46:44.908Z,-3.00
2024-01-11T16:49:11.787Z,-2.90
2024-01-11T16:51:50.786Z,-3.10
2024-01-11T16:54:18.662Z,-3.30
2024-01-11T16:56:52.682Z,-3.20
2024-01-11T16:59:19.856Z,-3.10
2024-01-11T17:01:46.823Z,-3.10
2024-01-11T17:04:15.367Z,-3.20
2024-01-11T17:06:42.462Z,-3.40
2024-01-11T17:09:09.460Z,-3.40
2024-01-11T17:11:41.513Z,-3.20
2024-01-11T17:14:09.448Z,-3.30
2024-01-11T17:16:37.112Z,-3.40
2024-01-11T17:19:04.127Z,-3.30
2024-01-11T17:21:32.497Z,-3.40
2024-01-11T17:23:59.685Z,-3.60
2024-01-11T17:26:27.338Z,-3.50
2024-01-11T17:28:54.623Z,-3.80
2024-01-11T17:31:21.649Z,-3.60
2024-01-11T17:33:48.640Z,-3.40
2024-01-11T17:36:15.705Z,-3.50
2024-01-11T17:38:42.929Z,-3.70
2024-01-11T17:41:09.820Z,-3.90
2024-01-11T17:43:36.884Z,-3.80
2024-01-11T17:46:04.258Z,-3.90
2024-01-11T17:48:31.275Z,-3.60
2024-01-11T17:50:58.083Z,-3.80
2024-01-11T17:53:25.483Z,-3.70
2024-01-11T17:55:52.357Z,-4.00
2024-01-11T17:58:21.283Z,-4.20
2024-01-11T18:01:07.590Z,-4.00
2024-01-11T18:03:34.381Z,-4.10
2024-01-11T18:06:06.467Z,-3.90
2024-01-11T18:08:33.293Z,-4.00
2024-01-11T18:11:00.552Z,-4.30
2024-01-11T18:13:27.374Z,-4.30
2024-01-11T18:15:54.537Z,-4.10
2024-01-11T18:18:21.486Z,-4.10
2024-01-11T18:20:50.740Z,-4.10
2024-01-11T18:23:19.586Z,-4.10
2024-01-11T18:25:46.281Z,-3.90
2024-01-11T18:28:13.111Z,-4.30
2024-01-11T18:30:39.867Z,-4.10
2024-01-11T18:33:07.561Z,-4.40
2024-01-11T18:35:34.511Z,-4.30
2024-01-11T18:38:01.572Z,-4.10
2024-01-11T18:40:28.358Z,-4.20
2024-01-11T18:42:55.904Z,-4.10
2024-01-11T18:45:40.692Z,-4.30
2024-01-11T18:48:10.642Z,-4.40
2024-01-11T18:50:47.585Z,-4.40
2024-01-11T18:53:14.484Z,-4.10
2024-01-11T18:55:41.185Z,-3.80
2024-01-11T18:58:08.169Z,-3.70
2024-01-11T19:00:35.984Z,-3.70
2024-01-11T19:03:03.457Z,-3.80
2024-01-11T19:05:31.268Z,-3.60
2024-01-11T19:08:00.229Z,-3.60
2024-01-11T19:10:27.002Z,-3.70
2024-01-11T19:12:53.746Z,-3.80
2024-01-11T19:15:21.226Z,-3.80
2024-01-11T19:17:48.510Z,-3.50
2024-01-11T19:20:15.862Z,-3.50
2024-01-11T19:22:42.596Z,-3.80
2024-01-11T19:25:09.394Z,-3.80
2024-01-11T19:27:36.222Z,-3.70
2024-01-11T19:30:05.282Z,-3.50
2024-01-11T19:32:33.157Z,-3.40
2024-01-11T19:35:00.029Z,-3.40
2024-01-11T19:37:26.803Z,-3.60
2024-01-11T19:39:54.046Z,-3.60
2024-01-11T19:42:20.788Z,-3.50
2024-01-11T19:44:47.580Z,-3.50
2024-01-11T19:47:14.406Z,-3.30
2024-01-11T19:49:41.195Z,-3.40
2024-01-11T19:52:07.979Z,-3.60
2024-01-11T19:54:34.778Z,-3.60
2024-01-11T19:57:01.556Z,-3.50
2024-01-11T19:59:29.135Z,-3.40
2024-01-11T20:01:56.663Z,-3.40
2024-01-11T20:04:24.639Z,-3.50
2024-01-11T20:06:51.735Z,-3.40
2024-01-11T20:09:19.166Z,-3.40
2024-01-11T20:11:46.058Z,-3.30
2024-01-11T20:14:13.637Z,-3.30
2024-01-11T20:16:40.622Z,-3.30
2024-01-11T20:19:07.427Z,-3.30
2024-01-11T20:21:34.239Z,-3.20
2024-01-11T20:24:01.045Z,-3.20
2024-01-11T20:26:29.552Z,-3.20
2024-01-11T20:28:56.527Z,-3.30
2024-01-11T20:31:23.272Z,-3.20
2024-01-11T20:33:50.095Z,-3.20
2024-01-11T20:36:16.948Z,-3.20
2024-01-11T20:38:43.706Z,-3.20
2024-01-11T20:41:13.526Z,-3.20
2024-01-11T20:43:42.335Z,-3.00
2024-01-11T20:46:09.151Z,-3.00
2024-01-11T20:48:36.123Z,-3.00
2024-01-11T20:51:03.028Z,-3.00
2024-01-11T20:53:29.920Z,-3.10
2024-01-11T20:55:57.713Z,-3.10
2024-01-11T20:58:24.456Z,-3.10
2024-01-11T21:00:51.705Z,-3.00
2024-01-11T21:03:18.578Z,-3.10
2024-01-11T21:05:48.361Z,-3.00
2024-01-11T21:08:15.205Z,-3.00
2024-01-11T21:10:42.075Z,-2.90
2024-01-11T21:13:08.811Z,-2.80
2024-01-11T21:15:35.505Z,-2.90
2024-01-11T21:18:02.373Z,-2.80
2024-01-11T21:20:29.187Z,-2.80
2024-01-11T21:22:55.902Z,-2.80
2024-01-11T21:25:26.155Z,-2.70
2024-01-11T21:27:53.209Z,-2.70
2024-01-11T21:30:20.035Z,-2.60
2024-01-11T21:32:46.874Z,-2.60
2024-01-11T21:35:16.804Z,-2.60
2024-01-11T21:37:44.000Z,-2.60
2024-01-11T21:40:14.577Z,-2.60
2024-01-11T21:42:41.330Z,-2.70
2024-01-11T21:45:09.424Z,-2.70
2024-01-11T21:47:36.343Z,-2.60
2024-01-11T21:50:03.300Z,-2.60
2024-01-11T21:52:30.059Z,-2.40
2024-01-11T21:54:56.756Z,-2.10
2024-01-11T21:57:23.599Z,-2.00
2024-01-11T21:59:50.421Z,-2.00
2024-01-11T22:02:17.320Z,-2.20
2024-01-11T22:04:44.088Z,-2.10
2024-01-11T22:07:12.211Z,-2.00
2024-01-11T22:09:39.798Z,-2.10
2024-01-11T22:12:06.783Z,-2.10
2024-01-11T22:14:33.614Z,-2.20
2024-01-11T22:17:00.426Z,-2.30
2024-01-11T22:19:27.418Z,-2.20
2024-01-11T22:21:54.358Z,-2.20
2024-01-11T22:24:21.100Z,-2.30
2024-01-11T22:26:47.987Z,-2.30
2024-01-11T22:29:14.813Z,-2.30
2024-01-11T22:31:41.688Z,-2.30
2024-01-11T22:34:08.587Z,-2.30
2024-01-11T22:36:35.806Z,-2.20
2024-01-11T22:39:02.535Z,-2.30
2024-01-11T22:41:30.924Z,-2.40
2024-01-11T22:43:58.244Z,-2.40
2024-01-11T22:46:25.039Z,-2.30
2024-01-11T22:48:51.840Z,-2.20
2024-01-11T22:51:19.020Z,-2.20
2024-01-11T22:53:46.077Z,-2.20
2024-01-11T22:56:13.183Z,-2.20
2024-01-11T22:58:39.916Z,-2.20
2024-01-11T23:01:06.708Z,-2.30
2024-01-11T23:03:33.508Z,-2.40
2024-01-11T23:06:00.385Z,-2.50
2024-01-11T23:08:27.240Z,-2.40
2024-01-11T23:10:54.760Z,-2.40
2024-01-11T23:13:21.455Z,-2.30
2024-01-11T23:15:48.196Z,-2.30
2024-01-11T23:18:15.115Z,-2.50
2024-01-11T23:20:41.905Z,-2.50
2024-01-11T23:23:08.933Z,-2.70
2024-01-11T23:25:35.696Z,-2.70
2024-01-11T23:28:03.307Z,-2.60
2024-01-11T23:30:30.099Z,-2.60
2024-01-11T23:32:56.893Z,-2.70
2024-01-11T23:35:23.708Z,-3.10
2024-01-11T23:37:50.802Z,-3.00
2024-01-11T23:40:17.864Z,-2.80
2024-01-11T23:42:44.681Z,-2.90
2024-01-11T23:45:11.412Z,-2.70
2024-01-11T23:47:38.279Z,-2.70
2024-01-11T23:50:05.361Z,-2.70
2024-01-11T23:52:32.235Z,-2.70
2024-01-11T23:54:59.076Z,-2.80
2024-01-11T23:57:25.832Z,-2.90
2024-01-11T23:59:52.665Z,-2.90
